sensor_id;sensor_type;location;lat;lon;timestamp;temperature;humidity
12720;DHT22;6424;48.520;11.228;2023-02-03T00:01:31;4.00;99.90
12720;DHT22;6424;48.520;11.228;2023-02-03T00:04:12;4.00;99.90
12720;DHT22;6424;48.520;11.228;2023-02-03T00:06:53;4.00;99.90
12720;DHT22;6424;48.520;11.228;2023-02-03T00:09:33;4.00;99.90
12720;DHT22;6424;48.520;11.228;2023-02-03T00:12:14;4.00;99.90
12720;DHT22;6424;48.520;11.228;2023-02-03T00:14:55;4.00;99.90
12720;DHT22;6424;48.520;11.228;2023-02-03T00:17:36;4.00;99.90
12720;DHT22;6424;48.520;11.228;2023-02-03T00:20:17;4.00;99.90
12720;DHT22;6424;48.520;11.228;2023-02-03T00:23:09;4.00;99.90
12720;DHT22;6424;48.520;11.228;2023-02-03T00:25:50;4.00;99.90
12720;DHT22;6424;48.520;11.228;2023-02-03T00:28:31;4.00;99.90
12720;DHT22;6424;48.520;11.228;2023-02-03T00:31:16;4.00;99.90
12720;DHT22;6424;48.520;11.228;2023-02-03T00:33:57;4.00;99.90
12720;DHT22;6424;48.520;11.228;2023-02-03T00:36:38;4.00;99.90
12720;DHT22;6424;48.520;11.228;2023-02-03T00:39:19;4.00;99.90
12720;DHT22;6424;48.520;11.228;2023-02-03T00:42:00;4.00;99.90
12720;DHT22;6424;48.520;11.228;2023-02-03T00:44:40;3.90;99.90
12720;DHT22;6424;48.520;11.228;2023-02-03T00:47:21;4.00;99.90
12720;DHT22;6424;48.520;11.228;2023-02-03T00:50:03;4.00;99.90
12720;DHT22;6424;48.520;11.228;2023-02-03T00:52:29;4.00;99.90
12720;DHT22;6424;48.520;11.228;2023-02-03T00:55:10;4.00;99.90
12720;DHT22;6424;48.520;11.228;2023-02-03T00:57:51;4.00;99.90
12720;DHT22;6424;48.520;11.228;2023-02-03T01:00:31;4.00;99.90
12720;DHT22;6424;48.520;11.228;2023-02-03T01:03:13;4.00;99.90
12720;DHT22;6424;48.520;11.228;2023-02-03T01:05:39;4.00;99.90
12720;DHT22;6424;48.520;11.228;2023-02-03T01:08:20;4.00;99.90
12720;DHT22;6424;48.520;11.228;2023-02-03T01:11:08;4.00;99.90
12720;DHT22;6424;48.520;11.228;2023-02-03T01:13:35;4.00;99.90
12720;DHT22;6424;48.520;11.228;2023-02-03T01:16:18;4.00;99.90
12720;DHT22;6424;48.520;11.228;2023-02-03T01:18:59;4.00;99.90
12720;DHT22;6424;48.520;11.228;2023-02-03T01:21:40;4.00;99.90
12720;DHT22;6424;48.520;11.228;2023-02-03T01:24:06;4.10;99.90
12720;DHT22;6424;48.520;11.228;2023-02-03T01:26:48;4.00;99.90
12720;DHT22;6424;48.520;11.228;2023-02-03T01:29:29;4.00;99.90
12720;DHT22;6424;48.520;11.228;2023-02-03T01:32:10;4.00;99.90
12720;DHT22;6424;48.520;11.228;2023-02-03T01:34:50;4.00;99.90
12720;DHT22;6424;48.520;11.228;2023-02-03T01:37:31;4.00;99.90
12720;DHT22;6424;48.520;11.228;2023-02-03T01:39:57;4.00;99.90
12720;DHT22;6424;48.520;11.228;2023-02-03T01:42:38;4.00;99.90
12720;DHT22;6424;48.520;11.228;2023-02-03T01:45:18;4.10;99.90
12720;DHT22;6424;48.520;11.228;2023-02-03T01:47:59;4.10;99.90
12720;DHT22;6424;48.520;11.228;2023-02-03T01:50:40;4.10;99.90
12720;DHT22;6424;48.520;11.228;2023-02-03T01:53:21;4.00;99.90
12720;DHT22;6424;48.520;11.228;2023-02-03T01:56:02;4.10;99.90
12720;DHT22;6424;48.520;11.228;2023-02-03T01:58:46;4.10;99.90
12720;DHT22;6424;48.520;11.228;2023-02-03T02:01:29;4.10;99.90
12720;DHT22;6424;48.520;11.228;2023-02-03T02:04:11;4.20;99.90
12720;DHT22;6424;48.520;11.228;2023-02-03T02:06:54;4.20;99.90
12720;DHT22;6424;48.520;11.228;2023-02-03T02:09:21;4.20;99.90
12720;DHT22;6424;48.520;11.228;2023-02-03T02:12:02;4.20;99.90
12720;DHT22;6424;48.520;11.228;2023-02-03T02:14:43;4.20;99.90
12720;DHT22;6424;48.520;11.228;2023-02-03T02:35:57;4.20;99.90
12720;DHT22;6424;48.520;11.228;2023-02-03T02:41:51;4.20;99.90
12720;DHT22;6424;48.520;11.228;2023-02-03T02:44:39;4.20;99.90
12720;DHT22;6424;48.520;11.228;2023-02-03T02:47:22;4.20;99.90
12720;DHT22;6424;48.520;11.228;2023-02-03T02:50:13;4.30;99.90
12720;DHT22;6424;48.520;11.228;2023-02-03T02:52:56;4.30;99.90
12720;DHT22;6424;48.520;11.228;2023-02-03T02:55:39;4.30;99.90
12720;DHT22;6424;48.520;11.228;2023-02-03T02:58:11;4.30;99.90
12720;DHT22;6424;48.520;11.228;2023-02-03T03:00:54;4.30;99.90
12720;DHT22;6424;48.520;11.228;2023-02-03T03:03:35;4.30;99.90
12720;DHT22;6424;48.520;11.228;2023-02-03T03:06:31;4.30;99.90
12720;DHT22;6424;48.520;11.228;2023-02-03T03:09:20;4.30;99.90
12720;DHT22;6424;48.520;11.228;2023-02-03T03:14:52;4.30;99.90
12720;DHT22;6424;48.520;11.228;2023-02-03T03:17:39;4.30;99.90
12720;DHT22;6424;48.520;11.228;2023-02-03T03:20:24;4.30;99.90
12720;DHT22;6424;48.520;11.228;2023-02-03T03:23:10;4.20;99.90
12720;DHT22;6424;48.520;11.228;2023-02-03T03:26:09;4.20;99.90
12720;DHT22;6424;48.520;11.228;2023-02-03T03:29:11;4.20;99.90
12720;DHT22;6424;48.520;11.228;2023-02-03T03:31:53;4.20;99.90
12720;DHT22;6424;48.520;11.228;2023-02-03T03:34:34;4.20;99.90
12720;DHT22;6424;48.520;11.228;2023-02-03T03:37:02;4.20;99.90
12720;DHT22;6424;48.520;11.228;2023-02-03T03:42:40;4.20;99.90
12720;DHT22;6424;48.520;11.228;2023-02-03T03:45:36;4.20;99.90
12720;DHT22;6424;48.520;11.228;2023-02-03T03:48:08;4.20;99.90
12720;DHT22;6424;48.520;11.228;2023-02-03T03:50:57;4.20;99.90
12720;DHT22;6424;48.520;11.228;2023-02-03T03:53:41;4.20;99.90
12720;DHT22;6424;48.520;11.228;2023-02-03T03:56:28;4.20;99.90
12720;DHT22;6424;48.520;11.228;2023-02-03T03:59:13;4.20;99.90
12720;DHT22;6424;48.520;11.228;2023-02-03T04:01:57;4.20;99.90
12720;DHT22;6424;48.520;11.228;2023-02-03T04:04:39;4.20;99.90
12720;DHT22;6424;48.520;11.228;2023-02-03T04:07:20;4.20;99.90
12720;DHT22;6424;48.520;11.228;2023-02-03T04:10:04;4.30;99.90
12720;DHT22;6424;48.520;11.228;2023-02-03T04:12:46;4.30;99.90
12720;DHT22;6424;48.520;11.228;2023-02-03T04:15:27;4.30;99.90
12720;DHT22;6424;48.520;11.228;2023-02-03T04:18:10;4.30;99.90
12720;DHT22;6424;48.520;11.228;2023-02-03T04:20:52;4.20;99.90
12720;DHT22;6424;48.520;11.228;2023-02-03T04:23:33;4.20;99.90
12720;DHT22;6424;48.520;11.228;2023-02-03T04:26:14;4.20;99.90
12720;DHT22;6424;48.520;11.228;2023-02-03T04:28:55;4.20;99.90
12720;DHT22;6424;48.520;11.228;2023-02-03T04:31:36;4.20;99.90
12720;DHT22;6424;48.520;11.228;2023-02-03T04:34:18;4.20;99.90
12720;DHT22;6424;48.520;11.228;2023-02-03T04:36:58;4.20;99.90
12720;DHT22;6424;48.520;11.228;2023-02-03T04:39:39;4.20;99.90
12720;DHT22;6424;48.520;11.228;2023-02-03T04:42:21;4.20;99.90
12720;DHT22;6424;48.520;11.228;2023-02-03T04:45:02;4.30;99.90
12720;DHT22;6424;48.520;11.228;2023-02-03T04:47:42;4.30;99.90
12720;DHT22;6424;48.520;11.228;2023-02-03T04:50:08;4.30;99.90
12720;DHT22;6424;48.520;11.228;2023-02-03T04:52:49;4.30;99.90
12720;DHT22;6424;48.520;11.228;2023-02-03T04:55:15;4.30;99.90
12720;DHT22;6424;48.520;11.228;2023-02-03T04:57:41;4.30;99.90
12720;DHT22;6424;48.520;11.228;2023-02-03T05:00:22;4.30;99.90
12720;DHT22;6424;48.520;11.228;2023-02-03T05:03:03;4.30;99.90
12720;DHT22;6424;48.520;11.228;2023-02-03T05:05:43;4.30;99.90
12720;DHT22;6424;48.520;11.228;2023-02-03T05:08:24;4.30;99.90
12720;DHT22;6424;48.520;11.228;2023-02-03T05:11:05;4.30;99.90
12720;DHT22;6424;48.520;11.228;2023-02-03T05:13:46;4.30;99.90
12720;DHT22;6424;48.520;11.228;2023-02-03T05:16:27;4.30;99.90
12720;DHT22;6424;48.520;11.228;2023-02-03T05:19:08;4.30;99.90
12720;DHT22;6424;48.520;11.228;2023-02-03T05:21:48;4.30;99.90
12720;DHT22;6424;48.520;11.228;2023-02-03T05:24:30;4.20;99.90
12720;DHT22;6424;48.520;11.228;2023-02-03T05:27:11;4.20;99.90
12720;DHT22;6424;48.520;11.228;2023-02-03T05:29:51;4.20;99.90
12720;DHT22;6424;48.520;11.228;2023-02-03T05:32:32;4.20;99.90
12720;DHT22;6424;48.520;11.228;2023-02-03T05:35:13;4.20;99.90
12720;DHT22;6424;48.520;11.228;2023-02-03T05:37:54;4.20;99.90
12720;DHT22;6424;48.520;11.228;2023-02-03T05:40:19;4.20;99.90
12720;DHT22;6424;48.520;11.228;2023-02-03T05:43:04;4.20;99.90
12720;DHT22;6424;48.520;11.228;2023-02-03T05:45:44;4.30;99.90
12720;DHT22;6424;48.520;11.228;2023-02-03T05:48:25;4.30;99.90
12720;DHT22;6424;48.520;11.228;2023-02-03T05:51:06;4.30;99.90
12720;DHT22;6424;48.520;11.228;2023-02-03T05:53:47;4.30;99.90
12720;DHT22;6424;48.520;11.228;2023-02-03T05:56:28;4.30;99.90
12720;DHT22;6424;48.520;11.228;2023-02-03T05:59:08;4.30;99.90
12720;DHT22;6424;48.520;11.228;2023-02-03T06:01:34;4.30;99.90
12720;DHT22;6424;48.520;11.228;2023-02-03T06:04:15;4.30;99.90
12720;DHT22;6424;48.520;11.228;2023-02-03T06:06:56;4.20;99.90
12720;DHT22;6424;48.520;11.228;2023-02-03T06:09:37;4.30;99.90
12720;DHT22;6424;48.520;11.228;2023-02-03T06:12:18;4.30;99.90
12720;DHT22;6424;48.520;11.228;2023-02-03T06:14:58;4.30;99.90
12720;DHT22;6424;48.520;11.228;2023-02-03T06:17:24;4.30;99.90
12720;DHT22;6424;48.520;11.228;2023-02-03T06:20:06;4.30;99.90
12720;DHT22;6424;48.520;11.228;2023-02-03T06:22:48;4.30;99.90
12720;DHT22;6424;48.520;11.228;2023-02-03T06:25:28;4.30;99.90
12720;DHT22;6424;48.520;11.228;2023-02-03T06:27:57;4.20;99.90
12720;DHT22;6424;48.520;11.228;2023-02-03T06:30:38;4.20;99.90
12720;DHT22;6424;48.520;11.228;2023-02-03T06:33:19;4.20;99.90
12720;DHT22;6424;48.520;11.228;2023-02-03T06:36:00;4.30;99.90
12720;DHT22;6424;48.520;11.228;2023-02-03T06:38:26;4.30;99.90
12720;DHT22;6424;48.520;11.228;2023-02-03T06:41:06;4.40;99.90
12720;DHT22;6424;48.520;11.228;2023-02-03T06:43:47;4.40;99.90
12720;DHT22;6424;48.520;11.228;2023-02-03T06:46:13;4.40;99.90
12720;DHT22;6424;48.520;11.228;2023-02-03T06:48:53;4.30;99.90
12720;DHT22;6424;48.520;11.228;2023-02-03T06:51:35;4.30;99.90
12720;DHT22;6424;48.520;11.228;2023-02-03T06:54:01;4.30;99.90
12720;DHT22;6424;48.520;11.228;2023-02-03T06:56:43;4.30;99.90
12720;DHT22;6424;48.520;11.228;2023-02-03T06:59:24;4.30;99.90
12720;DHT22;6424;48.520;11.228;2023-02-03T07:02:05;4.30;99.90
12720;DHT22;6424;48.520;11.228;2023-02-03T07:04:46;4.30;99.90
12720;DHT22;6424;48.520;11.228;2023-02-03T07:07:26;4.30;99.90
12720;DHT22;6424;48.520;11.228;2023-02-03T07:10:07;4.20;99.90
12720;DHT22;6424;48.520;11.228;2023-02-03T07:12:48;4.30;99.90
12720;DHT22;6424;48.520;11.228;2023-02-03T07:15:31;4.20;99.90
12720;DHT22;6424;48.520;11.228;2023-02-03T07:18:12;4.20;99.90
12720;DHT22;6424;48.520;11.228;2023-02-03T07:20:52;4.20;99.90
12720;DHT22;6424;48.520;11.228;2023-02-03T07:23:33;4.20;99.90
12720;DHT22;6424;48.520;11.228;2023-02-03T07:26:15;4.30;99.90
12720;DHT22;6424;48.520;11.228;2023-02-03T07:28:56;4.20;99.90
12720;DHT22;6424;48.520;11.228;2023-02-03T07:31:24;4.30;99.90
12720;DHT22;6424;48.520;11.228;2023-02-03T07:34:05;4.30;99.90
12720;DHT22;6424;48.520;11.228;2023-02-03T07:36:46;4.30;99.90
12720;DHT22;6424;48.520;11.228;2023-02-03T07:39:27;4.30;99.90
12720;DHT22;6424;48.520;11.228;2023-02-03T07:42:07;4.30;99.90
12720;DHT22;6424;48.520;11.228;2023-02-03T07:44:48;4.30;99.90
12720;DHT22;6424;48.520;11.228;2023-02-03T07:47:29;4.30;99.90
12720;DHT22;6424;48.520;11.228;2023-02-03T07:50:10;4.30;99.90
12720;DHT22;6424;48.520;11.228;2023-02-03T07:52:51;4.40;99.90
12720;DHT22;6424;48.520;11.228;2023-02-03T07:55:32;4.40;99.90
12720;DHT22;6424;48.520;11.228;2023-02-03T07:58:13;4.40;99.90
12720;DHT22;6424;48.520;11.228;2023-02-03T08:00:57;4.40;99.90
12720;DHT22;6424;48.520;11.228;2023-02-03T08:03:38;4.40;99.90
12720;DHT22;6424;48.520;11.228;2023-02-03T08:06:05;4.50;99.90
12720;DHT22;6424;48.520;11.228;2023-02-03T08:08:31;4.50;99.90
12720;DHT22;6424;48.520;11.228;2023-02-03T08:11:12;4.60;99.90
12720;DHT22;6424;48.520;11.228;2023-02-03T08:13:52;4.60;99.90
12720;DHT22;6424;48.520;11.228;2023-02-03T08:16:33;4.60;99.90
12720;DHT22;6424;48.520;11.228;2023-02-03T08:19:14;4.60;99.90
12720;DHT22;6424;48.520;11.228;2023-02-03T08:21:55;4.60;99.90
12720;DHT22;6424;48.520;11.228;2023-02-03T08:24:36;4.70;99.90
12720;DHT22;6424;48.520;11.228;2023-02-03T08:27:19;4.70;99.90
12720;DHT22;6424;48.520;11.228;2023-02-03T08:30:00;4.70;99.90
12720;DHT22;6424;48.520;11.228;2023-02-03T08:32:41;4.70;99.90
12720;DHT22;6424;48.520;11.228;2023-02-03T08:35:22;4.80;99.90
12720;DHT22;6424;48.520;11.228;2023-02-03T08:37:48;4.80;99.90
12720;DHT22;6424;48.520;11.228;2023-02-03T08:40:14;4.80;99.90
12720;DHT22;6424;48.520;11.228;2023-02-03T08:42:55;4.90;99.90
12720;DHT22;6424;48.520;11.228;2023-02-03T08:45:35;4.90;99.90
12720;DHT22;6424;48.520;11.228;2023-02-03T08:48:16;4.90;99.90
12720;DHT22;6424;48.520;11.228;2023-02-03T08:50:57;4.90;99.90
12720;DHT22;6424;48.520;11.228;2023-02-03T08:53:38;4.90;99.90
12720;DHT22;6424;48.520;11.228;2023-02-03T08:59:00;5.00;99.90
12720;DHT22;6424;48.520;11.228;2023-02-03T09:01:26;5.00;99.90
12720;DHT22;6424;48.520;11.228;2023-02-03T09:04:07;5.00;99.90
12720;DHT22;6424;48.520;11.228;2023-02-03T09:06:50;5.00;99.90
12720;DHT22;6424;48.520;11.228;2023-02-03T09:09:31;5.00;99.90
12720;DHT22;6424;48.520;11.228;2023-02-03T09:12:12;5.00;99.90
12720;DHT22;6424;48.520;11.228;2023-02-03T09:14:53;5.00;99.90
12720;DHT22;6424;48.520;11.228;2023-02-03T09:17:33;5.00;99.90
12720;DHT22;6424;48.520;11.228;2023-02-03T09:20:14;5.10;99.90
12720;DHT22;6424;48.520;11.228;2023-02-03T09:22:57;5.10;99.90
12720;DHT22;6424;48.520;11.228;2023-02-03T09:25:39;5.10;99.90
12720;DHT22;6424;48.520;11.228;2023-02-03T09:28:19;5.10;99.90
12720;DHT22;6424;48.520;11.228;2023-02-03T09:30:45;5.20;99.90
12720;DHT22;6424;48.520;11.228;2023-02-03T09:33:27;5.20;99.90
12720;DHT22;6424;48.520;11.228;2023-02-03T09:36:09;5.20;99.90
12720;DHT22;6424;48.520;11.228;2023-02-03T09:38:50;5.20;99.90
12720;DHT22;6424;48.520;11.228;2023-02-03T09:45:04;5.30;99.90
12720;DHT22;6424;48.520;11.228;2023-02-03T09:47:49;5.40;99.90
12720;DHT22;6424;48.520;11.228;2023-02-03T09:50:34;5.40;99.90
12720;DHT22;6424;48.520;11.228;2023-02-03T09:53:30;5.40;99.90
12720;DHT22;6424;48.520;11.228;2023-02-03T09:56:27;5.40;99.90
12720;DHT22;6424;48.520;11.228;2023-02-03T09:59:09;5.40;99.90
12720;DHT22;6424;48.520;11.228;2023-02-03T10:02:02;5.40;99.90
12720;DHT22;6424;48.520;11.228;2023-02-03T10:11:00;5.40;99.90
12720;DHT22;6424;48.520;11.228;2023-02-03T10:19:24;5.50;99.90
12720;DHT22;6424;48.520;11.228;2023-02-03T10:22:12;5.60;99.90
12720;DHT22;6424;48.520;11.228;2023-02-03T10:27:40;5.70;99.90
12720;DHT22;6424;48.520;11.228;2023-02-03T10:30:26;5.70;99.90
12720;DHT22;6424;48.520;11.228;2023-02-03T10:33:12;5.70;99.90
12720;DHT22;6424;48.520;11.228;2023-02-03T10:35:59;5.70;99.90
12720;DHT22;6424;48.520;11.228;2023-02-03T10:41:29;5.60;99.90
12720;DHT22;6424;48.520;11.228;2023-02-03T10:44:12;5.60;99.90
12720;DHT22;6424;48.520;11.228;2023-02-03T10:46:40;5.70;99.90
12720;DHT22;6424;48.520;11.228;2023-02-03T10:49:26;5.70;99.90
12720;DHT22;6424;48.520;11.228;2023-02-03T10:52:34;5.70;99.90
12720;DHT22;6424;48.520;11.228;2023-02-03T10:58:21;5.70;99.90
12720;DHT22;6424;48.520;11.228;2023-02-03T11:01:13;5.70;99.90
12720;DHT22;6424;48.520;11.228;2023-02-03T11:04:02;5.60;99.90
12720;DHT22;6424;48.520;11.228;2023-02-03T11:06:58;5.60;99.90
12720;DHT22;6424;48.520;11.228;2023-02-03T11:09:41;5.60;99.90
12720;DHT22;6424;48.520;11.228;2023-02-03T11:12:22;5.70;99.90
12720;DHT22;6424;48.520;11.228;2023-02-03T11:15:04;5.70;99.90
12720;DHT22;6424;48.520;11.228;2023-02-03T11:17:45;5.70;99.90
12720;DHT22;6424;48.520;11.228;2023-02-03T11:20:15;5.70;99.90
12720;DHT22;6424;48.520;11.228;2023-02-03T11:23:04;5.70;99.90
12720;DHT22;6424;48.520;11.228;2023-02-03T11:25:45;5.70;99.90
12720;DHT22;6424;48.520;11.228;2023-02-03T11:28:27;5.70;99.90
12720;DHT22;6424;48.520;11.228;2023-02-03T11:31:20;5.70;99.90
12720;DHT22;6424;48.520;11.228;2023-02-03T11:34:13;5.70;99.90
12720;DHT22;6424;48.520;11.228;2023-02-03T11:36:55;5.80;99.90
12720;DHT22;6424;48.520;11.228;2023-02-03T11:39:36;5.80;99.90
12720;DHT22;6424;48.520;11.228;2023-02-03T11:42:23;5.80;99.90
12720;DHT22;6424;48.520;11.228;2023-02-03T11:50:50;6.00;99.90
12720;DHT22;6424;48.520;11.228;2023-02-03T11:59:24;6.10;99.90
12720;DHT22;6424;48.520;11.228;2023-02-03T12:20:05;6.20;99.90
12720;DHT22;6424;48.520;11.228;2023-02-03T12:35:24;6.20;99.90
12720;DHT22;6424;48.520;11.228;2023-02-03T12:38:13;6.20;99.90
12720;DHT22;6424;48.520;11.228;2023-02-03T12:41:00;6.20;99.90
12720;DHT22;6424;48.520;11.228;2023-02-03T12:43:45;6.20;99.90
12720;DHT22;6424;48.520;11.228;2023-02-03T12:46:36;6.20;99.90
12720;DHT22;6424;48.520;11.228;2023-02-03T12:52:32;6.20;99.90
12720;DHT22;6424;48.520;11.228;2023-02-03T12:55:38;6.20;99.90
12720;DHT22;6424;48.520;11.228;2023-02-03T12:58:39;6.30;99.90
12720;DHT22;6424;48.520;11.228;2023-02-03T13:01:31;6.30;99.90
12720;DHT22;6424;48.520;11.228;2023-02-03T13:04:17;6.30;99.90
12720;DHT22;6424;48.520;11.228;2023-02-03T13:07:41;6.30;99.90
12720;DHT22;6424;48.520;11.228;2023-02-03T13:10:35;6.30;99.90
12720;DHT22;6424;48.520;11.228;2023-02-03T13:13:27;6.30;99.90
12720;DHT22;6424;48.520;11.228;2023-02-03T13:16:10;6.20;99.90
12720;DHT22;6424;48.520;11.228;2023-02-03T13:19:02;6.20;99.90
12720;DHT22;6424;48.520;11.228;2023-02-03T13:21:50;6.20;99.90
12720;DHT22;6424;48.520;11.228;2023-02-03T13:24:32;6.20;99.90
12720;DHT22;6424;48.520;11.228;2023-02-03T13:27:43;6.20;99.90
12720;DHT22;6424;48.520;11.228;2023-02-03T13:37:22;6.20;99.90
12720;DHT22;6424;48.520;11.228;2023-02-03T13:40:02;6.20;99.90
12720;DHT22;6424;48.520;11.228;2023-02-03T13:42:55;6.20;99.90
12720;DHT22;6424;48.520;11.228;2023-02-03T13:45:32;6.10;99.90
12720;DHT22;6424;48.520;11.228;2023-02-03T13:51:06;6.20;99.90
12720;DHT22;6424;48.520;11.228;2023-02-03T13:53:50;6.20;99.90
12720;DHT22;6424;48.520;11.228;2023-02-03T13:56:32;6.20;99.90
12720;DHT22;6424;48.520;11.228;2023-02-03T14:04:58;6.20;99.90
12720;DHT22;6424;48.520;11.228;2023-02-03T14:07:41;6.10;99.90
12720;DHT22;6424;48.520;11.228;2023-02-03T14:12:55;6.20;99.90
12720;DHT22;6424;48.520;11.228;2023-02-03T14:15:38;6.20;99.90
12720;DHT22;6424;48.520;11.228;2023-02-03T14:18:34;6.20;99.90
12720;DHT22;6424;48.520;11.228;2023-02-03T14:21:23;6.20;99.90
12720;DHT22;6424;48.520;11.228;2023-02-03T14:24:08;6.20;99.90
12720;DHT22;6424;48.520;11.228;2023-02-03T14:26:52;6.20;99.90
12720;DHT22;6424;48.520;11.228;2023-02-03T14:29:35;6.10;99.90
12720;DHT22;6424;48.520;11.228;2023-02-03T14:32:16;6.20;99.90
12720;DHT22;6424;48.520;11.228;2023-02-03T14:34:56;6.20;99.90
12720;DHT22;6424;48.520;11.228;2023-02-03T14:37:38;6.20;99.90
12720;DHT22;6424;48.520;11.228;2023-02-03T14:40:29;6.20;99.90
12720;DHT22;6424;48.520;11.228;2023-02-03T14:44:11;6.20;99.90
12720;DHT22;6424;48.520;11.228;2023-02-03T14:52:59;6.20;99.90
12720;DHT22;6424;48.520;11.228;2023-02-03T14:59:01;6.20;99.90
12720;DHT22;6424;48.520;11.228;2023-02-03T15:04:23;6.20;99.90
12720;DHT22;6424;48.520;11.228;2023-02-03T15:07:04;6.10;99.90
12720;DHT22;6424;48.520;11.228;2023-02-03T15:09:46;6.10;99.90
12720;DHT22;6424;48.520;11.228;2023-02-03T15:12:35;6.10;99.90
12720;DHT22;6424;48.520;11.228;2023-02-03T15:15:27;6.10;99.90
12720;DHT22;6424;48.520;11.228;2023-02-03T15:18:21;6.10;99.90
12720;DHT22;6424;48.520;11.228;2023-02-03T15:20:53;6.10;99.90
12720;DHT22;6424;48.520;11.228;2023-02-03T15:23:42;6.10;99.90
12720;DHT22;6424;48.520;11.228;2023-02-03T15:26:27;6.00;99.90
12720;DHT22;6424;48.520;11.228;2023-02-03T15:28:55;6.00;99.90
12720;DHT22;6424;48.520;11.228;2023-02-03T15:31:44;6.00;99.90
12720;DHT22;6424;48.520;11.228;2023-02-03T15:37:14;6.00;99.90
12720;DHT22;6424;48.520;11.228;2023-02-03T15:42:46;6.00;99.90
12720;DHT22;6424;48.520;11.228;2023-02-03T15:45:41;6.10;99.90
12720;DHT22;6424;48.520;11.228;2023-02-03T15:51:38;6.00;99.90
12720;DHT22;6424;48.520;11.228;2023-02-03T15:54:36;6.00;99.90
12720;DHT22;6424;48.520;11.228;2023-02-03T15:57:24;6.00;99.90
12720;DHT22;6424;48.520;11.228;2023-02-03T16:02:39;5.90;99.90
12720;DHT22;6424;48.520;11.228;2023-02-03T16:05:32;6.00;99.90
12720;DHT22;6424;48.520;11.228;2023-02-03T16:08:37;6.00;99.90
12720;DHT22;6424;48.520;11.228;2023-02-03T16:14:11;5.90;99.90
12720;DHT22;6424;48.520;11.228;2023-02-03T16:23:03;5.70;99.90
12720;DHT22;6424;48.520;11.228;2023-02-03T16:26:01;5.60;99.90
12720;DHT22;6424;48.520;11.228;2023-02-03T16:28:42;5.60;99.90
12720;DHT22;6424;48.520;11.228;2023-02-03T16:31:44;5.50;99.90
12720;DHT22;6424;48.520;11.228;2023-02-03T16:37:44;5.50;99.90
12720;DHT22;6424;48.520;11.228;2023-02-03T16:40:46;5.40;99.90
12720;DHT22;6424;48.520;11.228;2023-02-03T16:43:45;5.40;99.90
12720;DHT22;6424;48.520;11.228;2023-02-03T16:46:45;5.40;99.90
12720;DHT22;6424;48.520;11.228;2023-02-03T16:49:46;5.40;99.90
12720;DHT22;6424;48.520;11.228;2023-02-03T16:52:45;5.40;99.90
12720;DHT22;6424;48.520;11.228;2023-02-03T16:55:26;5.40;99.90
12720;DHT22;6424;48.520;11.228;2023-02-03T16:58:07;5.40;99.90
12720;DHT22;6424;48.520;11.228;2023-02-03T17:00:35;5.30;99.90
12720;DHT22;6424;48.520;11.228;2023-02-03T17:03:19;5.40;99.90
12720;DHT22;6424;48.520;11.228;2023-02-03T17:06:08;5.30;99.90
12720;DHT22;6424;48.520;11.228;2023-02-03T17:08:49;5.30;99.90
12720;DHT22;6424;48.520;11.228;2023-02-03T17:11:29;5.30;99.90
12720;DHT22;6424;48.520;11.228;2023-02-03T17:14:10;5.30;99.90
12720;DHT22;6424;48.520;11.228;2023-02-03T17:16:51;5.30;99.90
12720;DHT22;6424;48.520;11.228;2023-02-03T17:19:32;5.30;99.90
12720;DHT22;6424;48.520;11.228;2023-02-03T17:22:13;5.30;99.90
12720;DHT22;6424;48.520;11.228;2023-02-03T17:24:53;5.30;99.90
12720;DHT22;6424;48.520;11.228;2023-02-03T17:30:15;5.30;99.90
12720;DHT22;6424;48.520;11.228;2023-02-03T17:32:56;5.30;99.90
12720;DHT22;6424;48.520;11.228;2023-02-03T17:35:42;5.30;99.90
12720;DHT22;6424;48.520;11.228;2023-02-03T17:38:23;5.30;99.90
12720;DHT22;6424;48.520;11.228;2023-02-03T17:41:12;5.30;99.90
12720;DHT22;6424;48.520;11.228;2023-02-03T17:43:53;5.30;99.90
12720;DHT22;6424;48.520;11.228;2023-02-03T17:46:34;5.30;99.90
12720;DHT22;6424;48.520;11.228;2023-02-03T17:49:15;5.30;99.90
12720;DHT22;6424;48.520;11.228;2023-02-03T17:51:55;5.20;99.90
12720;DHT22;6424;48.520;11.228;2023-02-03T17:54:36;5.30;99.90
12720;DHT22;6424;48.520;11.228;2023-02-03T17:57:17;5.30;99.90
12720;DHT22;6424;48.520;11.228;2023-02-03T17:59:58;5.30;99.90
12720;DHT22;6424;48.520;11.228;2023-02-03T18:02:24;5.30;99.90
12720;DHT22;6424;48.520;11.228;2023-02-03T18:05:05;5.30;99.90
12720;DHT22;6424;48.520;11.228;2023-02-03T18:07:46;5.30;99.90
12720;DHT22;6424;48.520;11.228;2023-02-03T18:10:26;5.30;99.90
12720;DHT22;6424;48.520;11.228;2023-02-03T18:13:07;5.30;99.90
12720;DHT22;6424;48.520;11.228;2023-02-03T18:15:48;5.30;99.90
12720;DHT22;6424;48.520;11.228;2023-02-03T18:18:30;5.20;99.90
12720;DHT22;6424;48.520;11.228;2023-02-03T18:21:13;5.20;99.90
12720;DHT22;6424;48.520;11.228;2023-02-03T18:23:39;5.20;99.90
12720;DHT22;6424;48.520;11.228;2023-02-03T18:26:20;5.20;99.90
12720;DHT22;6424;48.520;11.228;2023-02-03T18:29:04;5.20;99.90
12720;DHT22;6424;48.520;11.228;2023-02-03T18:31:45;5.20;99.90
12720;DHT22;6424;48.520;11.228;2023-02-03T18:34:26;5.20;99.90
12720;DHT22;6424;48.520;11.228;2023-02-03T18:37:07;5.20;99.90
12720;DHT22;6424;48.520;11.228;2023-02-03T18:39:33;5.20;99.90
12720;DHT22;6424;48.520;11.228;2023-02-03T18:42:14;5.20;99.90
12720;DHT22;6424;48.520;11.228;2023-02-03T18:44:40;5.20;99.90
12720;DHT22;6424;48.520;11.228;2023-02-03T18:47:21;5.20;99.90
12720;DHT22;6424;48.520;11.228;2023-02-03T18:50:03;5.10;99.90
12720;DHT22;6424;48.520;11.228;2023-02-03T18:52:29;5.10;99.90
12720;DHT22;6424;48.520;11.228;2023-02-03T18:55:10;5.10;99.90
12720;DHT22;6424;48.520;11.228;2023-02-03T18:57:51;5.10;99.90
12720;DHT22;6424;48.520;11.228;2023-02-03T19:00:31;5.10;99.90
12720;DHT22;6424;48.520;11.228;2023-02-03T19:03:12;5.00;99.90
12720;DHT22;6424;48.520;11.228;2023-02-03T19:05:53;5.00;99.90
12720;DHT22;6424;48.520;11.228;2023-02-03T19:08:34;5.00;99.90
12720;DHT22;6424;48.520;11.228;2023-02-03T19:13:56;4.90;99.90
12720;DHT22;6424;48.520;11.228;2023-02-03T19:16:36;4.90;99.90
12720;DHT22;6424;48.520;11.228;2023-02-03T19:19:18;4.90;99.90
12720;DHT22;6424;48.520;11.228;2023-02-03T19:21:59;5.00;99.90
12720;DHT22;6424;48.520;11.228;2023-02-03T19:24:25;5.00;99.90
12720;DHT22;6424;48.520;11.228;2023-02-03T19:27:08;5.00;99.90
12720;DHT22;6424;48.520;11.228;2023-02-03T19:29:50;5.00;99.90
12720;DHT22;6424;48.520;11.228;2023-02-03T19:32:31;5.00;99.90
12720;DHT22;6424;48.520;11.228;2023-02-03T19:35:11;5.00;99.90
12720;DHT22;6424;48.520;11.228;2023-02-03T19:37:54;4.90;99.90
12720;DHT22;6424;48.520;11.228;2023-02-03T19:40:35;4.90;99.90
12720;DHT22;6424;48.520;11.228;2023-02-03T19:43:16;4.90;99.90
12720;DHT22;6424;48.520;11.228;2023-02-03T19:45:57;4.90;99.90
12720;DHT22;6424;48.520;11.228;2023-02-03T19:48:23;4.90;99.90
12720;DHT22;6424;48.520;11.228;2023-02-03T19:51:04;4.90;99.90
12720;DHT22;6424;48.520;11.228;2023-02-03T19:53:45;4.90;99.90
12720;DHT22;6424;48.520;11.228;2023-02-03T19:56:25;4.90;99.90
12720;DHT22;6424;48.520;11.228;2023-02-03T19:58:51;4.90;99.90